sensor_id;sensor_type;location;lat;lon;timestamp;pressure;altitude;pressure_sealevel;temperature;humidity
45621;BME280;31345;51.522;10.702;2023-04-30T00:00:15;99619.81;;;4.67;100.00
45621;BME280;31345;51.522;10.702;2023-04-30T00:02:55;99614.41;;;3.91;100.00
45621;BME280;31345;51.522;10.702;2023-04-30T00:05:29;99611.94;;;3.86;100.00
45621;BME280;31345;51.522;10.702;2023-04-30T00:07:56;99610.16;;;3.88;100.00
45621;BME280;31345;51.522;10.702;2023-04-30T00:10:24;99610.00;;;3.94;100.00
45621;BME280;31345;51.522;10.702;2023-04-30T00:12:56;99614.72;;;4.37;100.00
45621;BME280;31345;51.522;10.702;2023-04-30T00:15:29;99614.34;;;3.92;100.00
45621;BME280;31345;51.522;10.702;2023-04-30T00:18:04;99615.31;;;4.18;100.00
45621;BME280;31345;51.522;10.702;2023-04-30T00:20:33;99613.00;;;4.09;100.00
45621;BME280;31345;51.522;10.702;2023-04-30T00:23:06;99611.59;;;3.99;100.00
45621;BME280;31345;51.522;10.702;2023-04-30T00:25:34;99611.31;;;4.08;100.00
45621;BME280;31345;51.522;10.702;2023-04-30T00:28:01;99612.13;;;3.80;100.00
45621;BME280;31345;51.522;10.702;2023-04-30T00:30:30;99620.81;;;3.47;100.00
45621;BME280;31345;51.522;10.702;2023-04-30T00:33:05;99628.78;;;3.39;100.00
45621;BME280;31345;51.522;10.702;2023-04-30T00:35:37;99622.97;;;3.63;100.00
45621;BME280;31345;51.522;10.702;2023-04-30T00:38:10;99627.03;;;4.00;100.00
45621;BME280;31345;51.522;10.702;2023-04-30T00:40:43;99629.13;;;4.17;100.00
45621;BME280;31345;51.522;10.702;2023-04-30T00:43:15;99636.16;;;3.84;100.00
45621;BME280;31345;51.522;10.702;2023-04-30T00:45:48;99636.88;;;3.59;100.00
45621;BME280;31345;51.522;10.702;2023-04-30T00:48:22;99646.25;;;3.63;100.00
45621;BME280;31345;51.522;10.702;2023-04-30T00:50:55;99648.56;;;3.72;100.00
45621;BME280;31345;51.522;10.702;2023-04-30T00:53:27;99651.72;;;3.52;100.00
45621;BME280;31345;51.522;10.702;2023-04-30T00:56:01;99655.91;;;3.56;100.00
45621;BME280;31345;51.522;10.702;2023-04-30T00:58:34;99651.59;;;3.23;100.00
45621;BME280;31345;51.522;10.702;2023-04-30T01:01:07;99653.09;;;3.32;100.00
45621;BME280;31345;51.522;10.702;2023-04-30T01:03:41;99656.25;;;3.43;100.00
45621;BME280;31345;51.522;10.702;2023-04-30T01:06:09;99663.91;;;3.13;100.00
45621;BME280;31345;51.522;10.702;2023-04-30T01:08:37;99661.63;;;3.02;100.00
45621;BME280;31345;51.522;10.702;2023-04-30T01:11:16;99658.31;;;2.97;100.00
45621;BME280;31345;51.522;10.702;2023-04-30T01:13:58;99663.84;;;3.16;100.00
45621;BME280;31345;51.522;10.702;2023-04-30T01:16:36;99668.47;;;3.03;100.00
45621;BME280;31345;51.522;10.702;2023-04-30T01:19:19;99663.56;;;2.94;100.00
45621;BME280;31345;51.522;10.702;2023-04-30T01:22:03;99674.34;;;2.74;100.00
45621;BME280;31345;51.522;10.702;2023-04-30T01:24:58;99677.34;;;2.93;100.00
45621;BME280;31345;51.522;10.702;2023-04-30T01:27:54;99683.06;;;2.70;100.00
45621;BME280;31345;51.522;10.702;2023-04-30T01:30:33;99680.78;;;2.57;100.00
45621;BME280;31345;51.522;10.702;2023-04-30T01:33:03;99685.75;;;2.67;100.00
45621;BME280;31345;51.522;10.702;2023-04-30T01:36:00;99671.56;;;2.83;100.00
45621;BME280;31345;51.522;10.702;2023-04-30T01:38:40;99677.53;;;2.85;100.00
45621;BME280;31345;51.522;10.702;2023-04-30T01:41:20;99680.28;;;2.79;100.00
45621;BME280;31345;51.522;10.702;2023-04-30T01:44:11;99687.13;;;2.80;100.00
45621;BME280;31345;51.522;10.702;2023-04-30T01:46:55;99682.69;;;2.85;100.00
45621;BME280;31345;51.522;10.702;2023-04-30T01:49:29;99686.44;;;2.73;100.00
45621;BME280;31345;51.522;10.702;2023-04-30T01:52:09;99685.38;;;3.17;100.00
45621;BME280;31345;51.522;10.702;2023-04-30T01:54:50;99690.00;;;2.68;100.00
45621;BME280;31345;51.522;10.702;2023-04-30T01:57:28;99691.28;;;2.49;100.00
45621;BME280;31345;51.522;10.702;2023-04-30T02:00:06;99695.91;;;2.73;100.00
45621;BME280;31345;51.522;10.702;2023-04-30T02:02:44;99687.06;;;2.47;100.00
45621;BME280;31345;51.522;10.702;2023-04-30T02:05:17;99698.03;;;2.55;100.00
45621;BME280;31345;51.522;10.702;2023-04-30T02:07:51;99689.50;;;2.51;100.00
45621;BME280;31345;51.522;10.702;2023-04-30T02:10:25;99691.28;;;2.49;100.00
45621;BME280;31345;51.522;10.702;2023-04-30T02:13:00;99693.69;;;2.57;100.00
45621;BME280;31345;51.522;10.702;2023-04-30T02:15:34;99703.03;;;2.63;100.00
45621;BME280;31345;51.522;10.702;2023-04-30T02:18:07;99699.06;;;2.48;100.00
45621;BME280;31345;51.522;10.702;2023-04-30T02:20:39;99700.97;;;2.39;100.00
45621;BME280;31345;51.522;10.702;2023-04-30T02:23:12;99705.97;;;2.46;100.00
45621;BME280;31345;51.522;10.702;2023-04-30T02:25:44;99708.09;;;2.28;100.00
45621;BME280;31345;51.522;10.702;2023-04-30T02:28:12;99707.69;;;2.47;100.00
45621;BME280;31345;51.522;10.702;2023-04-30T02:30:46;99703.66;;;2.73;100.00
45621;BME280;31345;51.522;10.702;2023-04-30T02:33:21;99708.56;;;2.46;100.00
45621;BME280;31345;51.522;10.702;2023-04-30T02:35:48;99709.69;;;2.34;100.00
45621;BME280;31345;51.522;10.702;2023-04-30T02:38:16;99714.41;;;2.14;100.00
45621;BME280;31345;51.522;10.702;2023-04-30T02:40:49;99715.41;;;2.86;100.00
45621;BME280;31345;51.522;10.702;2023-04-30T02:43:16;99716.84;;;2.60;100.00
45621;BME280;31345;51.522;10.702;2023-04-30T02:45:45;99717.63;;;2.64;100.00
45621;BME280;31345;51.522;10.702;2023-04-30T02:48:13;99714.88;;;2.72;100.00
45621;BME280;31345;51.522;10.702;2023-04-30T02:50:41;99725.38;;;2.24;100.00
45621;BME280;31345;51.522;10.702;2023-04-30T02:53:08;99720.25;;;2.23;100.00
45621;BME280;31345;51.522;10.702;2023-04-30T02:55:41;99716.31;;;2.06;100.00
45621;BME280;31345;51.522;10.702;2023-04-30T02:58:14;99722.03;;;1.78;100.00
45621;BME280;31345;51.522;10.702;2023-04-30T03:00:48;99726.66;;;2.05;100.00
45621;BME280;31345;51.522;10.702;2023-04-30T03:03:20;99721.41;;;2.49;100.00
45621;BME280;31345;51.522;10.702;2023-04-30T03:05:53;99725.28;;;2.27;100.00
45621;BME280;31345;51.522;10.702;2023-04-30T03:08:29;99723.09;;;2.10;100.00
45621;BME280;31345;51.522;10.702;2023-04-30T03:11:02;99728.13;;;2.15;100.00
45621;BME280;31345;51.522;10.702;2023-04-30T03:13:35;99731.28;;;2.30;100.00
45621;BME280;31345;51.522;10.702;2023-04-30T03:16:04;99729.78;;;2.19;100.00
45621;BME280;31345;51.522;10.702;2023-04-30T03:18:36;99732.09;;;1.91;100.00
45621;BME280;31345;51.522;10.702;2023-04-30T03:21:09;99737.06;;;2.00;100.00
45621;BME280;31345;51.522;10.702;2023-04-30T03:23:42;99740.69;;;1.90;100.00
45621;BME280;31345;51.522;10.702;2023-04-30T03:26:14;99741.34;;;1.99;100.00
45621;BME280;31345;51.522;10.702;2023-04-30T03:28:47;99743.75;;;2.09;100.00
45621;BME280;31345;51.522;10.702;2023-04-30T03:31:17;99742.38;;;1.92;100.00
45621;BME280;31345;51.522;10.702;2023-04-30T03:33:49;99736.59;;;1.79;100.00
45621;BME280;31345;51.522;10.702;2023-04-30T03:36:22;99737.31;;;1.87;100.00
45621;BME280;31345;51.522;10.702;2023-04-30T03:38:54;99748.78;;;1.71;100.00
45621;BME280;31345;51.522;10.702;2023-04-30T03:41:27;99742.69;;;1.75;100.00
45621;BME280;31345;51.522;10.702;2023-04-30T03:44:00;99753.63;;;1.39;100.00
45621;BME280;31345;51.522;10.702;2023-04-30T03:46:34;99756.63;;;1.65;100.00
45621;BME280;31345;51.522;10.702;2023-04-30T03:49:06;99758.50;;;1.56;100.00
45621;BME280;31345;51.522;10.702;2023-04-30T03:51:40;99756.94;;;1.46;100.00
45621;BME280;31345;51.522;10.702;2023-04-30T03:54:12;99759.63;;;1.41;100.00
45621;BME280;31345;51.522;10.702;2023-04-30T03:56:45;99759.25;;;1.61;100.00
45621;BME280;31345;51.522;10.702;2023-04-30T03:59:18;99767.91;;;1.57;100.00
45621;BME280;31345;51.522;10.702;2023-04-30T04:01:52;99771.38;;;1.56;100.00
45621;BME280;31345;51.522;10.702;2023-04-30T04:04:20;99765.25;;;1.64;100.00
45621;BME280;31345;51.522;10.702;2023-04-30T04:06:53;99772.28;;;1.54;100.00
45621;BME280;31345;51.522;10.702;2023-04-30T04:09:25;99765.41;;;1.54;100.00
45621;BME280;31345;51.522;10.702;2023-04-30T04:11:58;99776.22;;;1.73;100.00
45621;BME280;31345;51.522;10.702;2023-04-30T04:14:31;99776.41;;;1.64;100.00
45621;BME280;31345;51.522;10.702;2023-04-30T04:17:06;99780.81;;;1.56;100.00
45621;BME280;31345;51.522;10.702;2023-04-30T04:19:39;99782.91;;;1.84;100.00
45621;BME280;31345;51.522;10.702;2023-04-30T04:22:11;99788.25;;;1.73;100.00
45621;BME280;31345;51.522;10.702;2023-04-30T04:24:44;99792.75;;;1.61;100.00
45621;BME280;31345;51.522;10.702;2023-04-30T04:27:22;99794.38;;;1.67;100.00
45621;BME280;31345;51.522;10.702;2023-04-30T04:29:55;99801.06;;;1.79;100.00
45621;BME280;31345;51.522;10.702;2023-04-30T04:32:29;99806.19;;;1.81;100.00
45621;BME280;31345;51.522;10.702;2023-04-30T04:35:03;99804.28;;;1.91;100.00
45621;BME280;31345;51.522;10.702;2023-04-30T04:37:31;99801.59;;;1.97;100.00
45621;BME280;31345;51.522;10.702;2023-04-30T04:40:05;99813.78;;;1.87;100.00
45621;BME280;31345;51.522;10.702;2023-04-30T04:42:33;99810.03;;;2.04;100.00
45621;BME280;31345;51.522;10.702;2023-04-30T04:45:07;99815.88;;;2.13;100.00
45621;BME280;31345;51.522;10.702;2023-04-30T04:47:41;99819.06;;;2.28;100.00
45621;BME280;31345;51.522;10.702;2023-04-30T04:50:14;99815.72;;;2.23;100.00
45621;BME280;31345;51.522;10.702;2023-04-30T04:52:47;99818.28;;;2.24;100.00
45621;BME280;31345;51.522;10.702;2023-04-30T04:55:19;99820.69;;;2.32;100.00
45621;BME280;31345;51.522;10.702;2023-04-30T04:57:47;99822.41;;;2.32;100.00
45621;BME280;31345;51.522;10.702;2023-04-30T05:00:21;99824.34;;;2.64;100.00
45621;BME280;31345;51.522;10.702;2023-04-30T05:02:55;99828.63;;;2.64;100.00
45621;BME280;31345;51.522;10.702;2023-04-30T05:05:27;99830.97;;;2.76;100.00
45621;BME280;31345;51.522;10.702;2023-04-30T05:08:00;99834.75;;;2.60;100.00
45621;BME280;31345;51.522;10.702;2023-04-30T05:10:33;99837.09;;;2.72;100.00
45621;BME280;31345;51.522;10.702;2023-04-30T05:13:06;99836.25;;;2.72;100.00
45621;BME280;31345;51.522;10.702;2023-04-30T05:15:39;99832.47;;;2.87;100.00
45621;BME280;31345;51.522;10.702;2023-04-30T05:18:13;99834.75;;;3.01;100.00
45621;BME280;31345;51.522;10.702;2023-04-30T05:20:40;99836.72;;;3.27;100.00
45621;BME280;31345;51.522;10.702;2023-04-30T05:23:13;99837.19;;;3.45;100.00
45621;BME280;31345;51.522;10.702;2023-04-30T05:25:50;99842.16;;;3.53;100.00
45621;BME280;31345;51.522;10.702;2023-04-30T05:28:23;99844.31;;;3.70;100.00
45621;BME280;31345;51.522;10.702;2023-04-30T05:30:55;99838.13;;;3.76;100.00
45621;BME280;31345;51.522;10.702;2023-04-30T05:33:25;99838.50;;;3.95;100.00
45621;BME280;31345;51.522;10.702;2023-04-30T05:35:57;99843.06;;;4.18;100.00
45621;BME280;31345;51.522;10.702;2023-04-30T05:38:30;99842.47;;;4.40;100.00
45621;BME280;31345;51.522;10.702;2023-04-30T05:41:03;99833.28;;;4.60;100.00
45621;BME280;31345;51.522;10.702;2023-04-30T05:43:36;99837.81;;;4.82;100.00
45621;BME280;31345;51.522;10.702;2023-04-30T05:46:03;99837.19;;;5.04;100.00
45621;BME280;31345;51.522;10.702;2023-04-30T05:48:37;99838.84;;;5.33;100.00
45621;BME280;31345;51.522;10.702;2023-04-30T05:51:10;99835.88;;;5.46;100.00
45621;BME280;31345;51.522;10.702;2023-04-30T05:53:42;99842.91;;;5.68;100.00
45621;BME280;31345;51.522;10.702;2023-04-30T05:56:15;99835.28;;;5.88;100.00
45621;BME280;31345;51.522;10.702;2023-04-30T05:58:47;99837.69;;;6.20;100.00
45621;BME280;31345;51.522;10.702;2023-04-30T06:01:21;99835.97;;;6.45;100.00
45621;BME280;31345;51.522;10.702;2023-04-30T06:03:56;99837.69;;;6.68;100.00
45621;BME280;31345;51.522;10.702;2023-04-30T06:06:29;99837.44;;;6.74;100.00
45621;BME280;31345;51.522;10.702;2023-04-30T06:09:02;99833.53;;;6.86;100.00
45621;BME280;31345;51.522;10.702;2023-04-30T06:11:35;99837.72;;;7.13;100.00
45621;BME280;31345;51.522;10.702;2023-04-30T06:14:09;99828.72;;;6.99;100.00
45621;BME280;31345;51.522;10.702;2023-04-30T06:16:37;99827.22;;;7.16;100.00
45621;BME280;31345;51.522;10.702;2023-04-30T06:19:06;99829.19;;;7.31;100.00
45621;BME280;31345;51.522;10.702;2023-04-30T06:21:38;99831.91;;;7.28;100.00
45621;BME280;31345;51.522;10.702;2023-04-30T06:24:11;99822.28;;;7.53;100.00
45621;BME280;31345;51.522;10.702;2023-04-30T06:26:43;99826.84;;;7.68;100.00
45621;BME280;31345;51.522;10.702;2023-04-30T06:29:16;99830.94;;;7.74;100.00
45621;BME280;31345;51.522;10.702;2023-04-30T06:31:49;99832.13;;;8.08;100.00
45621;BME280;31345;51.522;10.702;2023-04-30T06:34:23;99824.63;;;8.21;100.00
45621;BME280;31345;51.522;10.702;2023-04-30T06:36:56;99836.78;;;8.21;100.00
45621;BME280;31345;51.522;10.702;2023-04-30T06:39:29;99822.84;;;8.22;100.00
45621;BME280;31345;51.522;10.702;2023-04-30T06:42:02;99830.81;;;8.19;100.00
45621;BME280;31345;51.522;10.702;2023-04-30T06:44:34;99835.34;;;8.14;100.00
45621;BME280;31345;51.522;10.702;2023-04-30T06:47:07;99837.41;;;8.47;100.00
45621;BME280;31345;51.522;10.702;2023-04-30T06:49:41;99832.59;;;8.76;100.00
45621;BME280;31345;51.522;10.702;2023-04-30T06:52:14;99828.09;;;8.80;98.74
45621;BME280;31345;51.522;10.702;2023-04-30T06:54:46;99825.75;;;8.93;95.02
45621;BME280;31345;51.522;10.702;2023-04-30T06:57:19;99824.25;;;9.06;94.75
45621;BME280;31345;51.522;10.702;2023-04-30T06:59:51;99828.47;;;9.09;95.29
45621;BME280;31345;51.522;10.702;2023-04-30T07:02:24;99824.06;;;8.92;95.13
45621;BME280;31345;51.522;10.702;2023-04-30T07:04:58;99834.78;;;8.85;97.79
45621;BME280;31345;51.522;10.702;2023-04-30T07:07:31;99828.38;;;9.10;99.05
45621;BME280;31345;51.522;10.702;2023-04-30T07:10:04;99832.13;;;9.24;97.05
45621;BME280;31345;51.522;10.702;2023-04-30T07:12:37;99830.44;;;9.23;96.15
45621;BME280;31345;51.522;10.702;2023-04-30T07:15:10;99823.00;;;9.50;95.97
45621;BME280;31345;51.522;10.702;2023-04-30T07:17:42;99830.03;;;9.13;94.74
45621;BME280;31345;51.522;10.702;2023-04-30T07:20:16;99823.91;;;9.32;96.23
45621;BME280;31345;51.522;10.702;2023-04-30T07:22:49;99827.06;;;9.56;95.43
45621;BME280;31345;51.522;10.702;2023-04-30T07:25:22;99824.16;;;9.45;94.31
45621;BME280;31345;51.522;10.702;2023-04-30T07:27:54;99826.13;;;9.93;93.09
45621;BME280;31345;51.522;10.702;2023-04-30T07:30:27;99827.59;;;9.63;94.46
45621;BME280;31345;51.522;10.702;2023-04-30T07:33:00;99823.16;;;9.65;88.88
45621;BME280;31345;51.522;10.702;2023-04-30T07:35:35;99821.00;;;9.38;92.07
45621;BME280;31345;51.522;10.702;2023-04-30T07:38:08;99826.00;;;9.60;90.78
45621;BME280;31345;51.522;10.702;2023-04-30T07:40:40;99818.69;;;9.67;89.17
45621;BME280;31345;51.522;10.702;2023-04-30T07:43:13;99816.25;;;9.82;88.38
45621;BME280;31345;51.522;10.702;2023-04-30T07:45:46;99817.78;;;9.86;86.38
45621;BME280;31345;51.522;10.702;2023-04-30T07:48:19;99824.47;;;9.92;86.46
45621;BME280;31345;51.522;10.702;2023-04-30T07:50:53;99824.81;;;10.01;89.62
45621;BME280;31345;51.522;10.702;2023-04-30T07:53:27;99824.91;;;10.00;86.08
45621;BME280;31345;51.522;10.702;2023-04-30T07:55:59;99823.84;;;10.38;86.12
45621;BME280;31345;51.522;10.702;2023-04-30T07:58:32;99824.09;;;10.33;85.65
45621;BME280;31345;51.522;10.702;2023-04-30T08:01:05;99828.38;;;10.34;90.07
45621;BME280;31345;51.522;10.702;2023-04-30T08:03:37;99813.16;;;10.59;86.41
45621;BME280;31345;51.522;10.702;2023-04-30T08:06:11;99824.94;;;10.50;86.17
45621;BME280;31345;51.522;10.702;2023-04-30T08:08:44;99828.09;;;10.73;83.38
45621;BME280;31345;51.522;10.702;2023-04-30T08:11:20;99821.66;;;10.95;82.05
45621;BME280;31345;51.522;10.702;2023-04-30T08:13:52;99822.03;;;10.88;85.18
45621;BME280;31345;51.522;10.702;2023-04-30T08:16:25;99819.81;;;10.81;84.47
45621;BME280;31345;51.522;10.702;2023-04-30T08:18:58;99828.06;;;10.89;87.17
45621;BME280;31345;51.522;10.702;2023-04-30T08:21:32;99824.22;;;11.27;86.75
45621;BME280;31345;51.522;10.702;2023-04-30T08:24:05;99822.75;;;11.07;82.18
45621;BME280;31345;51.522;10.702;2023-04-30T08:26:37;99828.03;;;11.21;83.38
45621;BME280;31345;51.522;10.702;2023-04-30T08:29:10;99819.38;;;11.04;81.83
45621;BME280;31345;51.522;10.702;2023-04-30T08:31:43;99819.66;;;11.00;78.31
45621;BME280;31345;51.522;10.702;2023-04-30T08:34:16;99820.88;;;11.09;84.60
45621;BME280;31345;51.522;10.702;2023-04-30T08:36:45;99809.91;;;11.18;80.68
45621;BME280;31345;51.522;10.702;2023-04-30T08:39:17;99815.28;;;11.62;81.79
45621;BME280;31345;51.522;10.702;2023-04-30T08:41:54;99818.19;;;11.57;79.88
45621;BME280;31345;51.522;10.702;2023-04-30T08:44:27;99812.16;;;11.55;80.97
45621;BME280;31345;51.522;10.702;2023-04-30T08:47:00;99818.66;;;11.64;82.33
45621;BME280;31345;51.522;10.702;2023-04-30T08:49:34;99818.34;;;11.54;83.14
45621;BME280;31345;51.522;10.702;2023-04-30T08:52:09;99819.38;;;11.51;81.41
45621;BME280;31345;51.522;10.702;2023-04-30T08:54:43;99820.56;;;11.46;85.21
45621;BME280;31345;51.522;10.702;2023-04-30T08:57:17;99816.41;;;11.57;79.12
45621;BME280;31345;51.522;10.702;2023-04-30T08:59:49;99823.06;;;11.63;83.39
45621;BME280;31345;51.522;10.702;2023-04-30T09:02:22;99819.84;;;11.58;81.94
45621;BME280;31345;51.522;10.702;2023-04-30T09:04:55;99815.00;;;11.66;83.32
45621;BME280;31345;51.522;10.702;2023-04-30T09:07:30;99815.25;;;11.92;81.55
45621;BME280;31345;51.522;10.702;2023-04-30T09:10:13;99807.31;;;12.08;76.18
45621;BME280;31345;51.522;10.702;2023-04-30T09:12:42;99819.41;;;12.11;78.27
45621;BME280;31345;51.522;10.702;2023-04-30T09:15:15;99812.94;;;12.31;78.94
45621;BME280;31345;51.522;10.702;2023-04-30T09:17:49;99804.97;;;12.18;75.63
45621;BME280;31345;51.522;10.702;2023-04-30T09:20:21;99803.63;;;12.55;77.45
45621;BME280;31345;51.522;10.702;2023-04-30T09:23:06;99808.69;;;12.58;76.22
45621;BME280;31345;51.522;10.702;2023-04-30T09:25:39;99814.34;;;12.94;76.76
45621;BME280;31345;51.522;10.702;2023-04-30T09:28:13;99817.84;;;13.07;79.03
45621;BME280;31345;51.522;10.702;2023-04-30T09:30:46;99813.25;;;12.83;76.80
45621;BME280;31345;51.522;10.702;2023-04-30T09:33:19;99815.41;;;12.77;77.25
45621;BME280;31345;51.522;10.702;2023-04-30T09:35:51;99801.50;;;12.89;72.64
45621;BME280;31345;51.522;10.702;2023-04-30T09:38:27;99812.13;;;12.73;78.41
45621;BME280;31345;51.522;10.702;2023-04-30T09:41:00;99807.47;;;12.64;76.95
45621;BME280;31345;51.522;10.702;2023-04-30T09:43:33;99803.88;;;12.79;75.11
45621;BME280;31345;51.522;10.702;2023-04-30T09:46:06;99806.41;;;13.08;74.54
45621;BME280;31345;51.522;10.702;2023-04-30T09:48:34;99804.63;;;13.09;73.42
45621;BME280;31345;51.522;10.702;2023-04-30T09:51:06;99794.41;;;13.32;71.93
45621;BME280;31345;51.522;10.702;2023-04-30T09:53:41;99791.56;;;12.94;71.57
45621;BME280;31345;51.522;10.702;2023-04-30T09:56:18;99793.53;;;13.18;71.28
45621;BME280;31345;51.522;10.702;2023-04-30T09:58:49;99788.59;;;13.27;70.47
45621;BME280;31345;51.522;10.702;2023-04-30T10:01:17;99781.72;;;13.39;70.76
45621;BME280;31345;51.522;10.702;2023-04-30T10:03:46;99773.38;;;13.59;72.61
45621;BME280;31345;51.522;10.702;2023-04-30T10:06:20;99772.59;;;13.44;65.67
45621;BME280;31345;51.522;10.702;2023-04-30T10:08:55;99762.09;;;13.57;67.53
45621;BME280;31345;51.522;10.702;2023-04-30T10:11:31;99763.59;;;13.74;67.04
45621;BME280;31345;51.522;10.702;2023-04-30T10:14:09;99760.13;;;13.61;65.27
45621;BME280;31345;51.522;10.702;2023-04-30T10:16:47;99766.94;;;14.16;74.64
45621;BME280;31345;51.522;10.702;2023-04-30T10:19:24;99765.88;;;14.18;65.92
45621;BME280;31345;51.522;10.702;2023-04-30T10:21:57;99755.06;;;13.97;66.34
45621;BME280;31345;51.522;10.702;2023-04-30T10:24:26;99764.19;;;14.17;68.59
45621;BME280;31345;51.522;10.702;2023-04-30T10:26:59;99757.38;;;14.14;66.10
45621;BME280;31345;51.522;10.702;2023-04-30T10:29:33;99756.00;;;14.09;64.18
45621;BME280;31345;51.522;10.702;2023-04-30T10:32:06;99752.69;;;14.31;65.84
45621;BME280;31345;51.522;10.702;2023-04-30T10:34:46;99752.41;;;14.85;65.14
45621;BME280;31345;51.522;10.702;2023-04-30T10:37:27;99749.66;;;14.62;62.01
45621;BME280;31345;51.522;10.702;2023-04-30T10:40:05;99750.94;;;14.56;64.75
45621;BME280;31345;51.522;10.702;2023-04-30T10:42:44;99747.53;;;14.91;65.23
45621;BME280;31345;51.522;10.702;2023-04-30T10:45:17;99740.69;;;15.02;71.69
45621;BME280;31345;51.522;10.702;2023-04-30T10:47:46;99741.88;;;15.45;69.47
45621;BME280;31345;51.522;10.702;2023-04-30T10:50:22;99730.41;;;15.58;65.69
45621;BME280;31345;51.522;10.702;2023-04-30T10:53:00;99725.25;;;15.09;61.03
45621;BME280;31345;51.522;10.702;2023-04-30T10:55:44;99725.09;;;15.46;66.71
45621;BME280;31345;51.522;10.702;2023-04-30T10:58:23;99723.06;;;15.38;64.80
45621;BME280;31345;51.522;10.702;2023-04-30T11:01:00;99717.81;;;15.50;64.24
45621;BME280;31345;51.522;10.702;2023-04-30T11:03:35;99712.66;;;15.48;63.67
45621;BME280;31345;51.522;10.702;2023-04-30T11:06:10;99719.88;;;15.69;66.27
45621;BME280;31345;51.522;10.702;2023-04-30T11:08:44;99719.63;;;15.61;66.21
45621;BME280;31345;51.522;10.702;2023-04-30T11:11:19;99715.31;;;15.48;68.34
45621;BME280;31345;51.522;10.702;2023-04-30T11:13:58;99713.63;;;15.70;69.16
45621;BME280;31345;51.522;10.702;2023-04-30T11:16:33;99703.69;;;15.97;64.50
45621;BME280;31345;51.522;10.702;2023-04-30T11:19:06;99705.97;;;15.90;66.48
45621;BME280;31345;51.522;10.702;2023-04-30T11:21:41;99704.28;;;15.89;61.88
45621;BME280;31345;51.522;10.702;2023-04-30T11:24:50;99691.56;;;15.82;59.63
45621;BME280;31345;51.522;10.702;2023-04-30T11:27:25;99691.44;;;16.18;62.96
45621;BME280;31345;51.522;10.702;2023-04-30T11:29:54;99693.25;;;16.29;62.27
45621;BME280;31345;51.522;10.702;2023-04-30T11:32:31;99695.63;;;16.32;62.01
45621;BME280;31345;51.522;10.702;2023-04-30T11:35:05;99687.84;;;16.19;62.75
45621;BME280;31345;51.522;10.702;2023-04-30T11:37:41;99698.31;;;16.54;64.88
45621;BME280;31345;51.522;10.702;2023-04-30T11:40:14;99690.34;;;16.44;64.08
45621;BME280;31345;51.522;10.702;2023-04-30T11:42:48;99688.28;;;16.25;62.84
45621;BME280;31345;51.522;10.702;2023-04-30T11:45:21;99687.84;;;15.97;57.90
45621;BME280;31345;51.522;10.702;2023-04-30T11:47:54;99680.50;;;16.12;63.00
45621;BME280;31345;51.522;10.702;2023-04-30T11:50:24;99677.63;;;16.26;62.45
45621;BME280;31345;51.522;10.702;2023-04-30T11:52:59;99676.41;;;16.42;64.40
45621;BME280;31345;51.522;10.702;2023-04-30T11:55:35;99675.50;;;16.20;62.33
45621;BME280;31345;51.522;10.702;2023-04-30T11:58:09;99673.53;;;16.45;64.88
45621;BME280;31345;51.522;10.702;2023-04-30T12:00:42;99672.16;;;16.83;62.53
45621;BME280;31345;51.522;10.702;2023-04-30T12:03:15;99668.31;;;16.66;58.66
45621;BME280;31345;51.522;10.702;2023-04-30T12:05:48;99665.88;;;16.75;61.07
45621;BME280;31345;51.522;10.702;2023-04-30T12:08:21;99671.09;;;17.07;60.50
45621;BME280;31345;51.522;10.702;2023-04-30T12:10:53;99681.59;;;17.19;62.28
45621;BME280;31345;51.522;10.702;2023-04-30T12:13:29;99670.38;;;16.84;57.41
45621;BME280;31345;51.522;10.702;2023-04-30T12:16:02;99672.31;;;17.46;59.27
45621;BME280;31345;51.522;10.702;2023-04-30T12:18:35;99658.66;;;17.19;54.53
45621;BME280;31345;51.522;10.702;2023-04-30T12:21:08;99664.06;;;17.60;54.43
45621;BME280;31345;51.522;10.702;2023-04-30T12:23:41;99666.09;;;17.04;63.13
45621;BME280;31345;51.522;10.702;2023-04-30T12:26:15;99658.06;;;16.73;54.35
45621;BME280;31345;51.522;10.702;2023-04-30T12:28:50;99654.19;;;16.56;59.49
45621;BME280;31345;51.522;10.702;2023-04-30T12:31:18;99666.81;;;16.74;61.01
45621;BME280;31345;51.522;10.702;2023-04-30T12:33:54;99661.59;;;17.26;61.81
45621;BME280;31345;51.522;10.702;2023-04-30T12:36:30;99655.63;;;17.24;57.07
45621;BME280;31345;51.522;10.702;2023-04-30T12:39:07;99660.19;;;17.22;58.99
45621;BME280;31345;51.522;10.702;2023-04-30T12:41:36;99655.34;;;17.48;56.46
45621;BME280;31345;51.522;10.702;2023-04-30T12:44:20;99652.06;;;17.35;56.97
45621;BME280;31345;51.522;10.702;2023-04-30T12:46:54;99646.56;;;17.79;58.68
45621;BME280;31345;51.522;10.702;2023-04-30T12:49:29;99641.81;;;17.42;56.30
45621;BME280;31345;51.522;10.702;2023-04-30T12:52:03;99656.25;;;17.38;57.26
45621;BME280;31345;51.522;10.702;2023-04-30T12:54:38;99652.31;;;17.84;58.35
45621;BME280;31345;51.522;10.702;2023-04-30T12:57:07;99646.84;;;17.86;57.05
45621;BME280;31345;51.522;10.702;2023-04-30T12:59:37;99649.31;;;16.94;58.40
45621;BME280;31345;51.522;10.702;2023-04-30T13:02:12;99647.34;;;16.53;60.71
45621;BME280;31345;51.522;10.702;2023-04-30T13:04:45;99641.09;;;16.54;61.69
45621;BME280;31345;51.522;10.702;2023-04-30T13:07:19;99642.84;;;16.44;60.56
45621;BME280;31345;51.522;10.702;2023-04-30T13:09:47;99633.13;;;16.66;61.34
45621;BME280;31345;51.522;10.702;2023-04-30T13:12:19;99630.16;;;16.59;58.13
45621;BME280;31345;51.522;10.702;2023-04-30T13:14:53;99630.75;;;16.18;57.38
45621;BME280;31345;51.522;10.702;2023-04-30T13:17:27;99624.41;;;16.21;59.99
45621;BME280;31345;51.522;10.702;2023-04-30T13:20:00;99627.00;;;16.44;61.71
45621;BME280;31345;51.522;10.702;2023-04-30T13:22:32;99620.91;;;16.65;58.39